sensor_id;sensor_type;location;lat;lon;timestamp;P1;durP1;ratioP1;P2;durP2;ratioP2
75280;SDS011;63874;47.230;39.620;2023-10-19T00:01:15;15.02;;;6.00;;
75280;SDS011;63874;47.230;39.620;2023-10-19T00:03:43;12.77;;;5.43;;
75280;SDS011;63874;47.230;39.620;2023-10-19T00:06:09;12.20;;;3.92;;
75280;SDS011;63874;47.230;39.620;2023-10-19T00:08:36;12.20;;;4.88;;
75280;SDS011;63874;47.230;39.620;2023-10-19T00:11:09;12.40;;;4.35;;
75280;SDS011;63874;47.230;39.620;2023-10-19T00:13:46;13.75;;;4.07;;
75280;SDS011;63874;47.230;39.620;2023-10-19T00:16:15;15.30;;;4.00;;
75280;SDS011;63874;47.230;39.620;2023-10-19T00:18:46;14.68;;;4.95;;
75280;SDS011;63874;47.230;39.620;2023-10-19T00:21:18;12.93;;;3.53;;
75280;SDS011;63874;47.230;39.620;2023-10-19T00:23:47;13.50;;;5.10;;
75280;SDS011;63874;47.230;39.620;2023-10-19T00:26:17;12.98;;;4.32;;
75280;SDS011;63874;47.230;39.620;2023-10-19T00:29:05;10.60;;;3.38;;
75280;SDS011;63874;47.230;39.620;2023-10-19T00:31:50;10.35;;;4.13;;
75280;SDS011;63874;47.230;39.620;2023-10-19T00:34:16;9.25;;;4.50;;
75280;SDS011;63874;47.230;39.620;2023-10-19T00:36:43;11.55;;;3.40;;
75280;SDS011;63874;47.230;39.620;2023-10-19T00:39:11;11.10;;;3.95;;
75280;SDS011;63874;47.230;39.620;2023-10-19T00:41:46;7.50;;;3.17;;
75280;SDS011;63874;47.230;39.620;2023-10-19T00:44:13;14.88;;;4.40;;
75280;SDS011;63874;47.230;39.620;2023-10-19T00:46:49;12.23;;;3.92;;
75280;SDS011;63874;47.230;39.620;2023-10-19T00:49:26;10.63;;;4.13;;
75280;SDS011;63874;47.230;39.620;2023-10-19T00:51:52;11.27;;;3.88;;
75280;SDS011;63874;47.230;39.620;2023-10-19T00:54:29;9.25;;;4.03;;
75280;SDS011;63874;47.230;39.620;2023-10-19T00:57:01;12.65;;;4.60;;
75280;SDS011;63874;47.230;39.620;2023-10-19T00:59:38;13.23;;;4.05;;
75280;SDS011;63874;47.230;39.620;2023-10-19T01:02:13;12.30;;;4.25;;
75280;SDS011;63874;47.230;39.620;2023-10-19T01:04:48;10.70;;;3.33;;
75280;SDS011;63874;47.230;39.620;2023-10-19T01:07:16;8.32;;;3.22;;
75280;SDS011;63874;47.230;39.620;2023-10-19T01:09:59;11.27;;;4.28;;
75280;SDS011;63874;47.230;39.620;2023-10-19T01:12:50;15.98;;;5.32;;
75280;SDS011;63874;47.230;39.620;2023-10-19T01:15:18;10.63;;;3.75;;
75280;SDS011;63874;47.230;39.620;2023-10-19T01:17:55;18.15;;;6.35;;
75280;SDS011;63874;47.230;39.620;2023-10-19T01:20:27;7.90;;;3.10;;
75280;SDS011;63874;47.230;39.620;2023-10-19T01:22:56;10.75;;;4.18;;
75280;SDS011;63874;47.230;39.620;2023-10-19T01:25:56;13.57;;;3.85;;
75280;SDS011;63874;47.230;39.620;2023-10-19T01:31:10;14.10;;;5.07;;
75280;SDS011;63874;47.230;39.620;2023-10-19T01:33:49;18.65;;;4.90;;
75280;SDS011;63874;47.230;39.620;2023-10-19T01:36:15;13.23;;;3.67;;
75280;SDS011;63874;47.230;39.620;2023-10-19T01:38:47;11.82;;;3.60;;
75280;SDS011;63874;47.230;39.620;2023-10-19T01:41:13;14.73;;;6.05;;
75280;SDS011;63874;47.230;39.620;2023-10-19T01:43:44;13.45;;;4.75;;
75280;SDS011;63874;47.230;39.620;2023-10-19T01:46:13;12.65;;;3.67;;
75280;SDS011;63874;47.230;39.620;2023-10-19T01:48:48;18.27;;;5.80;;
75280;SDS011;63874;47.230;39.620;2023-10-19T01:51:21;10.68;;;3.67;;
75280;SDS011;63874;47.230;39.620;2023-10-19T01:53:49;15.50;;;5.78;;
75280;SDS011;63874;47.230;39.620;2023-10-19T01:56:16;14.18;;;5.60;;
75280;SDS011;63874;47.230;39.620;2023-10-19T01:58:47;18.38;;;6.82;;
75280;SDS011;63874;47.230;39.620;2023-10-19T02:01:17;19.65;;;6.32;;
75280;SDS011;63874;47.230;39.620;2023-10-19T02:03:46;21.02;;;7.20;;
75280;SDS011;63874;47.230;39.620;2023-10-19T02:06:22;14.10;;;5.00;;
75280;SDS011;63874;47.230;39.620;2023-10-19T02:09:21;13.18;;;5.43;;
75280;SDS011;63874;47.230;39.620;2023-10-19T02:11:59;16.90;;;5.43;;
75280;SDS011;63874;47.230;39.620;2023-10-19T02:14:27;12.05;;;5.07;;
75280;SDS011;63874;47.230;39.620;2023-10-19T02:16:57;14.35;;;6.18;;
75280;SDS011;63874;47.230;39.620;2023-10-19T02:19:26;19.80;;;5.65;;
75280;SDS011;63874;47.230;39.620;2023-10-19T02:21:57;9.95;;;3.42;;
75280;SDS011;63874;47.230;39.620;2023-10-19T02:24:35;9.93;;;3.97;;
75280;SDS011;63874;47.230;39.620;2023-10-19T02:27:00;13.35;;;5.38;;
75280;SDS011;63874;47.230;39.620;2023-10-19T02:29:27;14.65;;;4.57;;
75280;SDS011;63874;47.230;39.620;2023-10-19T02:31:55;14.65;;;4.68;;
75280;SDS011;63874;47.230;39.620;2023-10-19T02:34:21;12.52;;;5.07;;
75280;SDS011;63874;47.230;39.620;2023-10-19T02:36:50;14.10;;;4.70;;
75280;SDS011;63874;47.230;39.620;2023-10-19T02:39:16;18.40;;;6.13;;
75280;SDS011;63874;47.230;39.620;2023-10-19T02:41:46;19.02;;;5.95;;
75280;SDS011;63874;47.230;39.620;2023-10-19T02:44:14;23.33;;;7.25;;
75280;SDS011;63874;47.230;39.620;2023-10-19T02:46:41;14.15;;;4.65;;
75280;SDS011;63874;47.230;39.620;2023-10-19T02:49:09;15.38;;;5.65;;
75280;SDS011;63874;47.230;39.620;2023-10-19T02:51:41;14.63;;;4.65;;
75280;SDS011;63874;47.230;39.620;2023-10-19T02:54:14;15.32;;;5.82;;
75280;SDS011;63874;47.230;39.620;2023-10-19T02:56:51;13.02;;;4.95;;
75280;SDS011;63874;47.230;39.620;2023-10-19T02:59:19;14.70;;;5.40;;
75280;SDS011;63874;47.230;39.620;2023-10-19T03:01:51;14.77;;;5.35;;
75280;SDS011;63874;47.230;39.620;2023-10-19T03:04:27;16.08;;;4.78;;
75280;SDS011;63874;47.230;39.620;2023-10-19T03:06:56;20.30;;;6.65;;
75280;SDS011;63874;47.230;39.620;2023-10-19T03:09:22;18.58;;;7.90;;
75280;SDS011;63874;47.230;39.620;2023-10-19T03:11:55;26.48;;;9.85;;
75280;SDS011;63874;47.230;39.620;2023-10-19T03:14:35;19.35;;;8.68;;
75280;SDS011;63874;47.230;39.620;2023-10-19T03:17:02;26.58;;;13.73;;
75280;SDS011;63874;47.230;39.620;2023-10-19T03:19:30;36.67;;;14.65;;
75280;SDS011;63874;47.230;39.620;2023-10-19T03:21:56;63.45;;;19.90;;
75280;SDS011;63874;47.230;39.620;2023-10-19T03:24:26;58.47;;;21.98;;
75280;SDS011;63874;47.230;39.620;2023-10-19T03:27:02;66.25;;;22.30;;
75280;SDS011;63874;47.230;39.620;2023-10-19T03:29:37;64.57;;;22.95;;
75280;SDS011;63874;47.230;39.620;2023-10-19T03:32:04;73.05;;;20.55;;
75280;SDS011;63874;47.230;39.620;2023-10-19T03:34:35;51.95;;;19.67;;
75280;SDS011;63874;47.230;39.620;2023-10-19T03:37:01;52.03;;;18.50;;
75280;SDS011;63874;47.230;39.620;2023-10-19T03:39:32;59.40;;;16.73;;
75280;SDS011;63874;47.230;39.620;2023-10-19T03:42:00;47.30;;;17.55;;
75280;SDS011;63874;47.230;39.620;2023-10-19T03:44:26;44.55;;;16.08;;
75280;SDS011;63874;47.230;39.620;2023-10-19T03:46:53;45.67;;;13.88;;
75280;SDS011;63874;47.230;39.620;2023-10-19T03:49:21;40.67;;;13.27;;
75280;SDS011;63874;47.230;39.620;2023-10-19T03:51:48;40.50;;;14.50;;
75280;SDS011;63874;47.230;39.620;2023-10-19T03:54:24;35.88;;;12.57;;
75280;SDS011;63874;47.230;39.620;2023-10-19T03:56:52;42.65;;;13.65;;
75280;SDS011;63874;47.230;39.620;2023-10-19T03:59:22;38.83;;;14.13;;
75280;SDS011;63874;47.230;39.620;2023-10-19T04:01:55;31.52;;;13.30;;
75280;SDS011;63874;47.230;39.620;2023-10-19T04:04:23;34.03;;;10.57;;
75280;SDS011;63874;47.230;39.620;2023-10-19T04:06:49;38.58;;;13.52;;
75280;SDS011;63874;47.230;39.620;2023-10-19T04:09:25;30.10;;;11.45;;
75280;SDS011;63874;47.230;39.620;2023-10-19T04:11:55;23.70;;;7.45;;
75280;SDS011;63874;47.230;39.620;2023-10-19T04:14:21;32.30;;;10.98;;
75280;SDS011;63874;47.230;39.620;2023-10-19T04:16:49;43.03;;;15.07;;
75280;SDS011;63874;47.230;39.620;2023-10-19T04:19:15;41.28;;;14.38;;
75280;SDS011;63874;47.230;39.620;2023-10-19T04:21:41;44.70;;;15.93;;
75280;SDS011;63874;47.230;39.620;2023-10-19T04:24:12;31.27;;;11.68;;
75280;SDS011;63874;47.230;39.620;2023-10-19T04:26:38;31.20;;;10.43;;
75280;SDS011;63874;47.230;39.620;2023-10-19T04:29:05;37.92;;;12.98;;
75280;SDS011;63874;47.230;39.620;2023-10-19T04:31:52;39.20;;;13.70;;
75280;SDS011;63874;47.230;39.620;2023-10-19T04:34:21;36.20;;;13.40;;
75280;SDS011;63874;47.230;39.620;2023-10-19T04:36:48;40.72;;;16.15;;
75280;SDS011;63874;47.230;39.620;2023-10-19T04:39:16;65.75;;;23.65;;
75280;SDS011;63874;47.230;39.620;2023-10-19T04:41:45;49.08;;;15.70;;
75280;SDS011;63874;47.230;39.620;2023-10-19T04:44:13;34.90;;;15.57;;
75280;SDS011;63874;47.230;39.620;2023-10-19T04:46:41;55.67;;;18.60;;
75280;SDS011;63874;47.230;39.620;2023-10-19T04:49:09;59.38;;;19.65;;
75280;SDS011;63874;47.230;39.620;2023-10-19T04:51:35;44.33;;;19.02;;
75280;SDS011;63874;47.230;39.620;2023-10-19T04:54:05;34.92;;;14.65;;
75280;SDS011;63874;47.230;39.620;2023-10-19T04:56:36;42.08;;;18.63;;
75280;SDS011;63874;47.230;39.620;2023-10-19T04:59:03;52.35;;;16.15;;
75280;SDS011;63874;47.230;39.620;2023-10-19T05:01:29;46.40;;;15.98;;
75280;SDS011;63874;47.230;39.620;2023-10-19T05:03:55;57.83;;;16.60;;
75280;SDS011;63874;47.230;39.620;2023-10-19T05:06:21;47.67;;;17.15;;
75280;SDS011;63874;47.230;39.620;2023-10-19T05:08:47;58.20;;;17.70;;
75280;SDS011;63874;47.230;39.620;2023-10-19T05:11:13;33.53;;;12.98;;
75280;SDS011;63874;47.230;39.620;2023-10-19T05:13:39;39.28;;;12.65;;
75280;SDS011;63874;47.230;39.620;2023-10-19T05:16:05;43.85;;;14.98;;
75280;SDS011;63874;47.230;39.620;2023-10-19T05:18:32;32.13;;;10.95;;
75280;SDS011;63874;47.230;39.620;2023-10-19T05:20:59;41.15;;;12.57;;
75280;SDS011;63874;47.230;39.620;2023-10-19T05:23:26;29.52;;;11.23;;
75280;SDS011;63874;47.230;39.620;2023-10-19T05:26:02;42.55;;;11.75;;
75280;SDS011;63874;47.230;39.620;2023-10-19T05:28:30;21.67;;;9.63;;
75280;SDS011;63874;47.230;39.620;2023-10-19T05:30:56;31.33;;;10.02;;
75280;SDS011;63874;47.230;39.620;2023-10-19T05:33:27;22.60;;;9.98;;
75280;SDS011;63874;47.230;39.620;2023-10-19T05:35:54;31.38;;;10.27;;
75280;SDS011;63874;47.230;39.620;2023-10-19T05:38:20;25.38;;;8.05;;
75280;SDS011;63874;47.230;39.620;2023-10-19T05:40:48;20.75;;;7.93;;
75280;SDS011;63874;47.230;39.620;2023-10-19T05:43:15;27.77;;;9.27;;
75280;SDS011;63874;47.230;39.620;2023-10-19T05:45:42;25.27;;;8.13;;
75280;SDS011;63874;47.230;39.620;2023-10-19T05:48:08;21.20;;;7.95;;
75280;SDS011;63874;47.230;39.620;2023-10-19T05:50:34;22.17;;;8.75;;
75280;SDS011;63874;47.230;39.620;2023-10-19T05:53:01;22.40;;;8.25;;
75280;SDS011;63874;47.230;39.620;2023-10-19T05:55:28;21.98;;;8.07;;
75280;SDS011;63874;47.230;39.620;2023-10-19T05:57:55;20.25;;;7.95;;
75280;SDS011;63874;47.230;39.620;2023-10-19T06:00:22;24.17;;;10.35;;
75280;SDS011;63874;47.230;39.620;2023-10-19T06:02:51;21.10;;;8.43;;
75280;SDS011;63874;47.230;39.620;2023-10-19T06:05:19;26.83;;;8.80;;
75280;SDS011;63874;47.230;39.620;2023-10-19T06:07:46;22.90;;;9.02;;
75280;SDS011;63874;47.230;39.620;2023-10-19T06:10:16;28.08;;;10.98;;
75280;SDS011;63874;47.230;39.620;2023-10-19T06:12:45;21.70;;;10.45;;
75280;SDS011;63874;47.230;39.620;2023-10-19T06:15:21;24.67;;;9.82;;
75280;SDS011;63874;47.230;39.620;2023-10-19T06:17:50;28.38;;;11.13;;
75280;SDS011;63874;47.230;39.620;2023-10-19T06:20:17;22.40;;;9.57;;
75280;SDS011;63874;47.230;39.620;2023-10-19T06:22:58;28.08;;;11.73;;
75280;SDS011;63874;47.230;39.620;2023-10-19T06:25:32;27.35;;;10.32;;
75280;SDS011;63874;47.230;39.620;2023-10-19T06:28:01;32.13;;;11.88;;
75280;SDS011;63874;47.230;39.620;2023-10-19T06:30:28;25.45;;;10.43;;
75280;SDS011;63874;47.230;39.620;2023-10-19T06:32:55;31.02;;;13.63;;
75280;SDS011;63874;47.230;39.620;2023-10-19T06:35:29;23.33;;;10.68;;
75280;SDS011;63874;47.230;39.620;2023-10-19T06:38:00;28.45;;;9.50;;
75280;SDS011;63874;47.230;39.620;2023-10-19T06:40:27;24.58;;;7.78;;
75280;SDS011;63874;47.230;39.620;2023-10-19T06:42:56;28.23;;;9.65;;
75280;SDS011;63874;47.230;39.620;2023-10-19T06:45:23;20.67;;;6.50;;
75280;SDS011;63874;47.230;39.620;2023-10-19T06:47:51;13.77;;;4.00;;
75280;SDS011;63874;47.230;39.620;2023-10-19T06:50:19;21.98;;;5.20;;
75280;SDS011;63874;47.230;39.620;2023-10-19T06:52:47;13.23;;;5.90;;
75280;SDS011;63874;47.230;39.620;2023-10-19T06:55:15;17.58;;;6.85;;
75280;SDS011;63874;47.230;39.620;2023-10-19T06:57:46;14.60;;;5.47;;
75280;SDS011;63874;47.230;39.620;2023-10-19T07:00:17;14.40;;;3.65;;
75280;SDS011;63874;47.230;39.620;2023-10-19T07:02:49;15.52;;;6.15;;
75280;SDS011;63874;47.230;39.620;2023-10-19T07:05:19;12.18;;;4.32;;
75280;SDS011;63874;47.230;39.620;2023-10-19T07:07:50;15.13;;;5.22;;
75280;SDS011;63874;47.230;39.620;2023-10-19T07:10:22;18.17;;;6.95;;
75280;SDS011;63874;47.230;39.620;2023-10-19T07:12:53;10.90;;;4.20;;
75280;SDS011;63874;47.230;39.620;2023-10-19T07:15:20;15.95;;;5.80;;
75280;SDS011;63874;47.230;39.620;2023-10-19T07:17:48;16.63;;;4.88;;
75280;SDS011;63874;47.230;39.620;2023-10-19T07:20:15;18.75;;;4.85;;
75280;SDS011;63874;47.230;39.620;2023-10-19T07:22:52;19.88;;;4.63;;
75280;SDS011;63874;47.230;39.620;2023-10-19T11:09:14;7.55;;;2.17;;
75280;SDS011;63874;47.230;39.620;2023-10-19T11:11:44;5.78;;;1.77;;
75280;SDS011;63874;47.230;39.620;2023-10-19T11:14:11;9.18;;;1.48;;
75280;SDS011;63874;47.230;39.620;2023-10-19T11:16:37;11.00;;;2.45;;
75280;SDS011;63874;47.230;39.620;2023-10-19T11:19:04;6.07;;;1.73;;
75280;SDS011;63874;47.230;39.620;2023-10-19T11:21:31;10.57;;;3.00;;
75280;SDS011;63874;47.230;39.620;2023-10-19T11:23:56;11.68;;;3.10;;
75280;SDS011;63874;47.230;39.620;2023-10-19T11:26:23;9.65;;;2.33;;
75280;SDS011;63874;47.230;39.620;2023-10-19T11:28:59;8.00;;;1.98;;
75280;SDS011;63874;47.230;39.620;2023-10-19T11:31:26;9.95;;;2.75;;
75280;SDS011;63874;47.230;39.620;2023-10-19T11:33:53;9.18;;;2.25;;
75280;SDS011;63874;47.230;39.620;2023-10-19T11:36:20;12.45;;;4.88;;
75280;SDS011;63874;47.230;39.620;2023-10-19T11:38:51;10.80;;;3.33;;
75280;SDS011;63874;47.230;39.620;2023-10-19T11:41:17;9.13;;;2.83;;
75280;SDS011;63874;47.230;39.620;2023-10-19T11:43:46;11.27;;;2.40;;
75280;SDS011;63874;47.230;39.620;2023-10-19T11:46:14;8.30;;;3.00;;
75280;SDS011;63874;47.230;39.620;2023-10-19T11:48:40;8.30;;;2.08;;
75280;SDS011;63874;47.230;39.620;2023-10-19T11:51:09;8.80;;;1.90;;
75280;SDS011;63874;47.230;39.620;2023-10-19T11:53:39;8.63;;;2.67;;
75280;SDS011;63874;47.230;39.620;2023-10-19T11:56:06;9.80;;;3.05;;
75280;SDS011;63874;47.230;39.620;2023-10-19T11:58:33;9.80;;;3.58;;
75280;SDS011;63874;47.230;39.620;2023-10-19T12:01:03;12.38;;;3.38;;
75280;SDS011;63874;47.230;39.620;2023-10-19T12:03:37;12.55;;;3.55;;
75280;SDS011;63874;47.230;39.620;2023-10-19T12:06:06;8.30;;;2.03;;
75280;SDS011;63874;47.230;39.620;2023-10-19T12:08:35;7.53;;;2.42;;
75280;SDS011;63874;47.230;39.620;2023-10-19T12:11:02;11.48;;;2.72;;
75280;SDS011;63874;47.230;39.620;2023-10-19T12:13:30;12.48;;;2.90;;
75280;SDS011;63874;47.230;39.620;2023-10-19T12:15:56;14.15;;;2.80;;
75280;SDS011;63874;47.230;39.620;2023-10-19T12:18:26;7.35;;;3.30;;
75280;SDS011;63874;47.230;39.620;2023-10-19T12:20:53;8.60;;;3.25;;
75280;SDS011;63874;47.230;39.620;2023-10-19T12:23:25;8.77;;;2.38;;
75280;SDS011;63874;47.230;39.620;2023-10-19T12:25:51;9.35;;;2.97;;
75280;SDS011;63874;47.230;39.620;2023-10-19T12:28:18;9.95;;;2.95;;
75280;SDS011;63874;47.230;39.620;2023-10-19T12:30:44;9.20;;;2.85;;
75280;SDS011;63874;47.230;39.620;2023-10-19T12:33:10;14.95;;;3.63;;
75280;SDS011;63874;47.230;39.620;2023-10-19T12:35:42;11.18;;;2.85;;
75280;SDS011;63874;47.230;39.620;2023-10-19T12:38:26;11.43;;;3.58;;
75280;SDS011;63874;47.230;39.620;2023-10-19T12:40:52;8.27;;;2.67;;
75280;SDS011;63874;47.230;39.620;2023-10-19T12:43:20;9.10;;;2.55;;
75280;SDS011;63874;47.230;39.620;2023-10-19T12:45:48;10.57;;;4.50;;
75280;SDS011;63874;47.230;39.620;2023-10-19T12:48:22;9.30;;;3.42;;
75280;SDS011;63874;47.230;39.620;2023-10-19T12:50:55;8.70;;;3.15;;
75280;SDS011;63874;47.230;39.620;2023-10-19T12:53:21;13.02;;;2.97;;
75280;SDS011;63874;47.230;39.620;2023-10-19T12:55:50;11.68;;;2.88;;
75280;SDS011;63874;47.230;39.620;2023-10-19T12:58:17;8.65;;;4.35;;
75280;SDS011;63874;47.230;39.620;2023-10-19T13:00:46;9.10;;;1.75;;
75280;SDS011;63874;47.230;39.620;2023-10-19T13:05:56;11.85;;;2.67;;
75280;SDS011;63874;47.230;39.620;2023-10-19T13:08:23;7.88;;;2.22;;
75280;SDS011;63874;47.230;39.620;2023-10-19T13:10:55;8.68;;;2.15;;
75280;SDS011;63874;47.230;39.620;2023-10-19T13:13:24;12.00;;;2.70;;
75280;SDS011;63874;47.230;39.620;2023-10-19T13:15:49;11.18;;;2.95;;
75280;SDS011;63874;47.230;39.620;2023-10-19T13:18:18;12.95;;;3.75;;
75280;SDS011;63874;47.230;39.620;2023-10-19T13:20:50;10.68;;;3.00;;
75280;SDS011;63874;47.230;39.620;2023-10-19T13:23:21;9.05;;;3.10;;
75280;SDS011;63874;47.230;39.620;2023-10-19T13:25:48;10.57;;;3.60;;
75280;SDS011;63874;47.230;39.620;2023-10-19T13:28:33;11.52;;;3.38;;
75280;SDS011;63874;47.230;39.620;2023-10-19T13:31:04;12.77;;;3.05;;
75280;SDS011;63874;47.230;39.620;2023-10-19T13:33:30;12.02;;;4.25;;
75280;SDS011;63874;47.230;39.620;2023-10-19T13:35:57;13.38;;;5.22;;
75280;SDS011;63874;47.230;39.620;2023-10-19T13:38:23;13.82;;;4.32;;
75280;SDS011;63874;47.230;39.620;2023-10-19T13:40:49;10.75;;;3.70;;
75280;SDS011;63874;47.230;39.620;2023-10-19T13:43:16;12.13;;;4.75;;
75280;SDS011;63874;47.230;39.620;2023-10-19T13:45:43;6.35;;;3.00;;
75280;SDS011;63874;47.230;39.620;2023-10-19T13:48:11;14.82;;;5.18;;
75280;SDS011;63874;47.230;39.620;2023-10-19T13:50:43;15.88;;;5.40;;
75280;SDS011;63874;47.230;39.620;2023-10-19T13:53:14;11.75;;;4.07;;
75280;SDS011;63874;47.230;39.620;2023-10-19T13:55:41;13.13;;;3.83;;
75280;SDS011;63874;47.230;39.620;2023-10-19T13:58:08;8.55;;;2.28;;
75280;SDS011;63874;47.230;39.620;2023-10-19T14:00:36;8.52;;;3.08;;
75280;SDS011;63874;47.230;39.620;2023-10-19T14:03:05;7.38;;;2.75;;
75280;SDS011;63874;47.230;39.620;2023-10-19T14:05:37;8.18;;;1.83;;
75280;SDS011;63874;47.230;39.620;2023-10-19T14:08:05;9.07;;;2.15;;
75280;SDS011;63874;47.230;39.620;2023-10-19T14:10:34;7.63;;;1.70;;
75280;SDS011;63874;47.230;39.620;2023-10-19T14:13:01;7.38;;;2.03;;
75280;SDS011;63874;47.230;39.620;2023-10-19T14:15:28;8.65;;;2.15;;
75280;SDS011;63874;47.230;39.620;2023-10-19T14:17:55;8.18;;;2.30;;
75280;SDS011;63874;47.230;39.620;2023-10-19T14:20:23;8.57;;;2.22;;
75280;SDS011;63874;47.230;39.620;2023-10-19T14:22:50;11.52;;;3.30;;
75280;SDS011;63874;47.230;39.620;2023-10-19T14:25:18;6.53;;;1.75;;
75280;SDS011;63874;47.230;39.620;2023-10-19T14:27:49;15.38;;;2.45;;
75280;SDS011;63874;47.230;39.620;2023-10-19T14:30:23;6.55;;;1.73;;
75280;SDS011;63874;47.230;39.620;2023-10-19T14:32:50;21.17;;;3.40;;
75280;SDS011;63874;47.230;39.620;2023-10-19T14:35:17;10.05;;;3.42;;
75280;SDS011;63874;47.230;39.620;2023-10-19T14:37:46;12.57;;;3.30;;
75280;SDS011;63874;47.230;39.620;2023-10-19T14:40:21;12.50;;;3.53;;
75280;SDS011;63874;47.230;39.620;2023-10-19T14:42:50;11.52;;;3.45;;
75280;SDS011;63874;47.230;39.620;2023-10-19T14:45:20;14.00;;;3.95;;
75280;SDS011;63874;47.230;39.620;2023-10-19T14:47:51;13.75;;;4.25;;
75280;SDS011;63874;47.230;39.620;2023-10-19T14:50:29;13.02;;;3.75;;
75280;SDS011;63874;47.230;39.620;2023-10-19T14:52:58;13.27;;;4.05;;
75280;SDS011;63874;47.230;39.620;2023-10-19T14:55:24;15.50;;;4.20;;
75280;SDS011;63874;47.230;39.620;2023-10-19T14:57:51;12.25;;;4.00;;
75280;SDS011;63874;47.230;39.620;2023-10-19T15:00:19;16.05;;;6.25;;
75280;SDS011;63874;47.230;39.620;2023-10-19T15:02:56;8.73;;;3.50;;
75280;SDS011;63874;47.230;39.620;2023-10-19T15:05:26;12.88;;;4.72;;
75280;SDS011;63874;47.230;39.620;2023-10-19T15:07:53;14.88;;;6.20;;
75280;SDS011;63874;47.230;39.620;2023-10-19T15:10:24;17.10;;;5.20;;
75280;SDS011;63874;47.230;39.620;2023-10-19T15:12:57;13.40;;;4.18;;
75280;SDS011;63874;47.230;39.620;2023-10-19T15:15:27;14.00;;;3.70;;
75280;SDS011;63874;47.230;39.620;2023-10-19T15:17:54;12.02;;;4.15;;
75280;SDS011;63874;47.230;39.620;2023-10-19T15:20:27;9.48;;;3.28;;
75280;SDS011;63874;47.230;39.620;2023-10-19T15:22:58;13.45;;;3.13;;
75280;SDS011;63874;47.230;39.620;2023-10-19T15:25:24;10.50;;;3.38;;
75280;SDS011;63874;47.230;39.620;2023-10-19T15:27:51;10.70;;;3.85;;
75280;SDS011;63874;47.230;39.620;2023-10-19T15:30:18;17.83;;;5.10;;
75280;SDS011;63874;47.230;39.620;2023-10-19T15:32:48;10.32;;;3.60;;
75280;SDS011;63874;47.230;39.620;2023-10-19T15:35:16;10.93;;;4.88;;
75280;SDS011;63874;47.230;39.620;2023-10-19T15:37:53;10.98;;;4.13;;
75280;SDS011;63874;47.230;39.620;2023-10-19T15:40:24;11.88;;;4.85;;
75280;SDS011;63874;47.230;39.620;2023-10-19T15:42:50;18.60;;;6.07;;
75280;SDS011;63874;47.230;39.620;2023-10-19T15:45:20;20.55;;;6.45;;
75280;SDS011;63874;47.230;39.620;2023-10-19T15:47:48;15.50;;;5.82;;
75280;SDS011;63874;47.230;39.620;2023-10-19T15:50:18;14.07;;;6.05;;
75280;SDS011;63874;47.230;39.620;2023-10-19T15:52:44;18.13;;;7.05;;
75280;SDS011;63874;47.230;39.620;2023-10-19T15:55:10;13.40;;;6.72;;
75280;SDS011;63874;47.230;39.620;2023-10-19T15:57:40;16.08;;;5.78;;
75280;SDS011;63874;47.230;39.620;2023-10-19T16:00:07;13.90;;;6.35;;
75280;SDS011;63874;47.230;39.620;2023-10-19T16:02:38;14.77;;;6.07;;
75280;SDS011;63874;47.230;39.620;2023-10-19T16:05:05;13.27;;;5.95;;
75280;SDS011;63874;47.230;39.620;2023-10-19T16:07:31;17.50;;;6.55;;
75280;SDS011;63874;47.230;39.620;2023-10-19T16:09:57;11.23;;;4.32;;
75280;SDS011;63874;47.230;39.620;2023-10-19T16:12:23;24.60;;;5.47;;
75280;SDS011;63874;47.230;39.620;2023-10-19T16:14:49;15.48;;;6.68;;
75280;SDS011;63874;47.230;39.620;2023-10-19T16:17:16;14.18;;;4.40;;
75280;SDS011;63874;47.230;39.620;2023-10-19T16:19:42;13.38;;;4.82;;
75280;SDS011;63874;47.230;39.620;2023-10-19T16:22:08;16.45;;;6.47;;
75280;SDS011;63874;47.230;39.620;2023-10-19T16:24:34;13.48;;;4.20;;
75280;SDS011;63874;47.230;39.620;2023-10-19T16:27:01;8.93;;;4.20;;
75280;SDS011;63874;47.230;39.620;2023-10-19T16:29:27;14.45;;;5.72;;
75280;SDS011;63874;47.230;39.620;2023-10-19T16:31:53;13.30;;;5.35;;
75280;SDS011;63874;47.230;39.620;2023-10-19T16:34:23;12.65;;;4.60;;
75280;SDS011;63874;47.230;39.620;2023-10-19T16:36:49;19.52;;;4.93;;
75280;SDS011;63874;47.230;39.620;2023-10-19T16:39:17;13.43;;;4.55;;
75280;SDS011;63874;47.230;39.620;2023-10-19T16:41:43;14.73;;;6.70;;
75280;SDS011;63874;47.230;39.620;2023-10-19T16:44:12;19.13;;;6.65;;
75280;SDS011;63874;47.230;39.620;2023-10-19T16:46:39;10.55;;;4.28;;
75280;SDS011;63874;47.230;39.620;2023-10-19T16:49:06;16.85;;;5.88;;
75280;SDS011;63874;47.230;39.620;2023-10-19T16:51:33;18.17;;;6.55;;
75280;SDS011;63874;47.230;39.620;2023-10-19T16:54:02;24.20;;;7.72;;
75280;SDS011;63874;47.230;39.620;2023-10-19T16:56:28;20.73;;;6.15;;
75280;SDS011;63874;47.230;39.620;2023-10-19T16:58:54;21.50;;;6.35;;
75280;SDS011;63874;47.230;39.620;2023-10-19T17:01:20;16.17;;;7.18;;
75280;SDS011;63874;47.230;39.620;2023-10-19T17:03:47;23.42;;;7.28;;
75280;SDS011;63874;47.230;39.620;2023-10-19T17:06:14;19.77;;;6.25;;
75280;SDS011;63874;47.230;39.620;2023-10-19T17:08:40;19.27;;;6.80;;
75280;SDS011;63874;47.230;39.620;2023-10-19T17:11:06;16.48;;;6.88;;
75280;SDS011;63874;47.230;39.620;2023-10-19T17:13:33;21.98;;;5.15;;
75280;SDS011;63874;47.230;39.620;2023-10-19T17:16:00;21.50;;;4.90;;
75280;SDS011;63874;47.230;39.620;2023-10-19T17:18:26;18.00;;;5.90;;
75280;SDS011;63874;47.230;39.620;2023-10-19T17:20:54;18.00;;;8.50;;
75280;SDS011;63874;47.230;39.620;2023-10-19T17:23:21;21.88;;;6.38;;
75280;SDS011;63874;47.230;39.620;2023-10-19T17:25:49;24.13;;;9.98;;
75280;SDS011;63874;47.230;39.620;2023-10-19T17:28:16;17.63;;;5.10;;
75280;SDS011;63874;47.230;39.620;2023-10-19T17:30:45;21.20;;;7.22;;
75280;SDS011;63874;47.230;39.620;2023-10-19T17:33:15;18.92;;;6.40;;
75280;SDS011;63874;47.230;39.620;2023-10-19T17:35:41;19.98;;;7.90;;
75280;SDS011;63874;47.230;39.620;2023-10-19T17:38:07;13.30;;;5.13;;
75280;SDS011;63874;47.230;39.620;2023-10-19T17:40:33;18.45;;;7.55;;
75280;SDS011;63874;47.230;39.620;2023-10-19T17:42:59;19.42;;;7.68;;
75280;SDS011;63874;47.230;39.620;2023-10-19T17:45:25;15.68;;;7.25;;
75280;SDS011;63874;47.230;39.620;2023-10-19T17:47:51;20.05;;;9.90;;
75280;SDS011;63874;47.230;39.620;2023-10-19T17:50:17;24.27;;;9.32;;
75280;SDS011;63874;47.230;39.620;2023-10-19T17:52:46;21.73;;;7.55;;
75280;SDS011;63874;47.230;39.620;2023-10-19T17:55:14;18.67;;;7.53;;
75280;SDS011;63874;47.230;39.620;2023-10-19T17:57:48;22.15;;;9.15;;
75280;SDS011;63874;47.230;39.620;2023-10-19T18:00:16;19.23;;;7.50;;
75280;SDS011;63874;47.230;39.620;2023-10-19T18:02:45;17.77;;;6.82;;
75280;SDS011;63874;47.230;39.620;2023-10-19T18:05:11;19.65;;;7.10;;
75280;SDS011;63874;47.230;39.620;2023-10-19T18:07:39;24.70;;;10.13;;
75280;SDS011;63874;47.230;39.620;2023-10-19T18:10:05;17.88;;;7.93;;
75280;SDS011;63874;47.230;39.620;2023-10-19T18:12:32;22.33;;;8.93;;
75280;SDS011;63874;47.230;39.620;2023-10-19T18:15:00;22.95;;;11.65;;
75280;SDS011;63874;47.230;39.620;2023-10-19T18:17:26;19.67;;;8.65;;
75280;SDS011;63874;47.230;39.620;2023-10-19T18:19:52;26.77;;;10.88;;
75280;SDS011;63874;47.230;39.620;2023-10-19T18:22:21;22.33;;;8.60;;